7CO3 weather

Lindys Airpark
Hudson, Colorado, United States

Public forecast

Using degrees Fahrenheit for public forecast. Weather courtesy of forecast.io.

Closest aviation weather report (METAR) to Lindys Airpark

Closest report is Denver International Airport, 10.9 nm (20.1 km) SSW. Retrieved 2019/10/19 05:53 UTC (51 minutes ago):

KDEN 190553Z 17009KT 10SM CLR 02/M04 A2991 RMK AO2 SLP101 T00171039 10133 20017 51010

Closest aviation forecast (TAF) to Lindys Airpark

Forecast is more than 6 hours old.

Closest forecast is Denver International Airport, 10.9 nm (20.1 km) SSW. Retrieved 2019-10-19 00:42 UTC (6 hours ago):

TAF KDEN 182340Z 1900/2006 10010KT P6SM SCT080 BKN120 FM190200 34012KT P6SM FEW080 SCT120 FM190400 25010KT P6SM FEW150 FM190900 21009KT P6SM SKC FM191900 18012KT P6SM FEW100 FM192200 10012KT P6SM SCT100 BKN200 FM200300 16015G23KT P6SM SCT080 BKN120